createdAt,value
2024-05-09T00:00:45.694Z,74.83
2024-05-09T00:03:33.713Z,75.02
2024-05-09T00:06:01.993Z,74.86
2024-05-09T00:08:30.084Z,75.21
2024-05-09T00:10:58.164Z,75.13
2024-05-09T00:13:26.262Z,75.19
2024-05-09T00:15:54.086Z,75.16
2024-05-09T00:18:22.030Z,74.97
2024-05-09T00:20:50.224Z,74.97
2024-05-09T00:23:18.198Z,75.15
2024-05-09T00:25:46.184Z,75.05
2024-05-09T00:28:14.207Z,74.86
2024-05-09T00:30:42.241Z,75.36
2024-05-09T00:33:11.428Z,75.53
2024-05-09T00:35:41.668Z,75.49
2024-05-09T00:38:10.427Z,75.76
2024-05-09T00:40:43.236Z,75.75
2024-05-09T00:43:13.913Z,75.74
2024-05-09T00:45:44.054Z,75.78
2024-05-09T00:48:16.426Z,75.90
2024-05-09T00:50:48.207Z,75.97
2024-05-09T00:53:18.536Z,76.01
2024-05-09T00:55:47.639Z,76.21
2024-05-09T00:58:18.615Z,76.01
2024-05-09T01:00:47.270Z,76.12
2024-05-09T01:03:15.503Z,76.07
2024-05-09T01:05:44.432Z,76.19
2024-05-09T01:08:13.084Z,76.40
2024-05-09T01:10:44.156Z,76.22
2024-05-09T01:13:13.860Z,76.19
2024-05-09T01:15:42.333Z,76.28
2024-05-09T01:18:12.389Z,76.23
2024-05-09T01:20:44.315Z,76.18
2024-05-09T01:23:15.424Z,76.23
2024-05-09T01:25:46.338Z,75.90
2024-05-09T01:28:16.478Z,75.73
2024-05-09T01:30:44.556Z,75.75
2024-05-09T01:33:13.203Z,76.06
2024-05-09T01:35:42.755Z,76.34
2024-05-09T01:38:17.032Z,76.51
2024-05-09T01:40:45.426Z,76.40
2024-05-09T01:43:13.849Z,76.40
2024-05-09T01:45:42.263Z,76.75
2024-05-09T01:48:11.116Z,76.87
2024-05-09T01:50:42.205Z,76.77
2024-05-09T01:53:13.358Z,76.67
2024-05-09T01:55:42.085Z,76.56
2024-05-09T01:58:10.204Z,76.59
2024-05-09T02:00:42.192Z,76.53
2024-05-09T02:03:16.544Z,76.49
2024-05-09T02:05:50.043Z,76.29
2024-05-09T02:08:20.216Z,75.95
2024-05-09T02:10:49.852Z,75.93
2024-05-09T02:13:18.543Z,76.08
2024-05-09T02:15:46.818Z,76.14
2024-05-09T02:18:14.879Z,75.85
2024-05-09T02:20:43.554Z,75.94
2024-05-09T02:23:13.890Z,76.02
2024-05-09T02:25:42.292Z,76.05
2024-05-09T02:28:10.238Z,75.92
2024-05-09T02:30:41.090Z,75.98
2024-05-09T02:33:12.387Z,75.67
2024-05-09T02:35:43.470Z,75.54
2024-05-09T02:38:12.507Z,75.68
2024-05-09T02:40:41.163Z,75.55
2024-05-09T02:43:12.656Z,75.58
2024-05-09T02:45:41.503Z,75.78
2024-05-09T02:48:13.713Z,75.64
2024-05-09T02:50:44.408Z,75.66
2024-05-09T02:53:14.198Z,75.47
2024-05-09T02:55:43.170Z,75.48
2024-05-09T02:58:11.968Z,75.58
2024-05-09T03:00:42.026Z,75.21
2024-05-09T03:03:13.499Z,75.05
2024-05-09T03:05:45.124Z,75.12
2024-05-09T03:08:13.520Z,74.73
2024-05-09T03:10:41.736Z,74.88
2024-05-09T03:13:12.968Z,75.21
2024-05-09T03:15:42.609Z,75.29
2024-05-09T03:18:11.497Z,75.47
2024-05-09T03:20:40.301Z,75.71
2024-05-09T03:23:09.618Z,76.08
2024-05-09T03:25:38.935Z,76.23
2024-05-09T03:28:07.461Z,76.59
2024-05-09T03:30:40.896Z,76.96
2024-05-09T03:33:19.224Z,77.14
2024-05-09T03:35:49.174Z,77.43
2024-05-09T03:38:17.905Z,77.68
2024-05-09T03:40:50.592Z,77.92
2024-05-09T03:43:19.887Z,77.97
2024-05-09T03:45:49.915Z,78.14
2024-05-09T03:48:18.118Z,78.08
2024-05-09T03:50:46.929Z,78.35
2024-05-09T03:53:15.389Z,78.72
2024-05-09T03:55:43.260Z,79.05
2024-05-09T03:58:12.726Z,79.15
2024-05-09T04:00:42.295Z,79.13
2024-05-09T04:03:12.206Z,79.15
2024-05-09T04:05:42.937Z,79.20
2024-05-09T04:08:15.503Z,78.79
2024-05-09T04:10:43.958Z,78.52
2024-05-09T04:13:12.112Z,78.62
2024-05-09T04:15:40.021Z,78.71
2024-05-09T04:18:08.107Z,78.60
2024-05-09T04:20:39.619Z,78.15
2024-05-09T04:23:14.425Z,77.88
2024-05-09T04:25:45.058Z,77.44
2024-05-09T04:28:14.014Z,76.88
2024-05-09T04:30:42.891Z,76.28
2024-05-09T04:33:13.435Z,75.67
2024-05-09T04:35:43.489Z,74.56
2024-05-09T04:38:13.487Z,71.94
2024-05-09T04:40:41.731Z,69.61
2024-05-09T04:43:18.758Z,67.04
2024-05-09T04:45:47.684Z,65.03
2024-05-09T04:48:16.678Z,63.28
2024-05-09T04:50:44.995Z,62.02
2024-05-09T04:53:18.447Z,61.44
2024-05-09T04:55:46.589Z,60.90
2024-05-09T04:58:14.700Z,58.94
2024-05-09T05:00:43.727Z,57.97
2024-05-09T05:03:14.565Z,56.61
2024-05-09T05:05:46.252Z,55.17
2024-05-09T05:08:16.446Z,54.37
2024-05-09T05:10:46.253Z,53.33
2024-05-09T05:13:20.553Z,52.64
2024-05-09T05:15:51.489Z,51.80
2024-05-09T05:18:19.941Z,50.71
2024-05-09T05:20:48.831Z,49.35
2024-05-09T05:23:19.983Z,50.30
2024-05-09T05:25:49.690Z,50.70
2024-05-09T05:28:18.668Z,50.42
2024-05-09T05:30:46.833Z,50.48
2024-05-09T05:33:17.913Z,51.15
2024-05-09T05:35:46.089Z,51.01
2024-05-09T05:38:14.158Z,50.22
2024-05-09T05:40:42.310Z,50.29
2024-05-09T05:43:16.907Z,48.74
2024-05-09T05:45:45.803Z,47.64
2024-05-09T05:48:17.850Z,46.48
2024-05-09T05:50:46.498Z,45.65
2024-05-09T05:53:14.785Z,45.14
2024-05-09T05:55:42.871Z,44.42
2024-05-09T05:58:12.255Z,43.26
2024-05-09T06:00:42.070Z,43.31
2024-05-09T06:03:12.661Z,43.44
2024-05-09T06:05:45.828Z,43.71
2024-05-09T06:08:14.096Z,43.81
2024-05-09T06:10:42.623Z,44.25
2024-05-09T06:13:11.765Z,44.40
2024-05-09T06:15:40.638Z,43.96
2024-05-09T06:18:10.572Z,43.95
2024-05-09T06:20:41.923Z,44.26
2024-05-09T06:23:11.396Z,45.13
2024-05-09T06:25:39.454Z,45.11
2024-05-09T06:28:07.419Z,45.57
2024-05-09T06:30:42.220Z,46.20
2024-05-09T06:33:13.947Z,46.67
2024-05-09T06:35:44.619Z,46.84
2024-05-09T06:38:13.250Z,46.89
2024-05-09T06:40:43.667Z,47.57
2024-05-09T06:43:18.373Z,47.42
2024-05-09T06:45:49.176Z,47.69
2024-05-09T06:48:19.731Z,48.47
2024-05-09T06:50:48.516Z,49.08
2024-05-09T06:53:17.472Z,48.63
2024-05-09T06:55:45.689Z,48.04
2024-05-09T06:58:13.731Z,48.22
2024-05-09T07:00:42.400Z,48.64
2024-05-09T07:03:16.746Z,48.71
2024-05-09T07:05:48.203Z,49.26
2024-05-09T07:08:18.085Z,49.88
2024-05-09T07:10:46.569Z,50.24
2024-05-09T07:13:15.630Z,50.56
2024-05-09T07:15:43.903Z,50.66
2024-05-09T07:18:13.943Z,50.58
2024-05-09T07:20:42.809Z,50.70
2024-05-09T07:23:11.943Z,51.14
2024-05-09T07:25:40.820Z,52.00
2024-05-09T07:28:18.020Z,51.60
2024-05-09T07:30:46.236Z,52.05
2024-05-09T07:33:23.017Z,51.57
2024-05-09T07:35:52.470Z,51.93
2024-05-09T07:38:20.853Z,51.16
2024-05-09T07:40:49.429Z,51.41
2024-05-09T07:43:17.394Z,52.61
2024-05-09T07:45:52.413Z,52.23
2024-05-09T07:52:38.775Z,51.31
2024-05-09T07:53:47.598Z,51.56
2024-05-09T07:56:21.644Z,50.60
2024-05-09T07:58:52.456Z,50.00
2024-05-09T08:01:21.157Z,50.24
2024-05-09T08:03:50.832Z,50.13
2024-05-09T08:06:19.197Z,49.20
2024-05-09T08:08:47.771Z,47.98
2024-05-09T08:11:15.911Z,46.84
2024-05-09T08:13:44.155Z,46.35
2024-05-09T08:16:13.999Z,46.77
2024-05-09T08:18:42.730Z,47.50
2024-05-09T08:21:11.010Z,47.19
2024-05-09T08:23:38.848Z,46.71
2024-05-09T08:26:06.720Z,47.23
2024-05-09T08:28:34.584Z,47.75
2024-05-09T08:31:06.048Z,46.84
2024-05-09T08:33:35.244Z,46.56
2024-05-09T08:36:03.525Z,46.17
2024-05-09T08:38:31.314Z,45.65
2024-05-09T08:41:02.012Z,44.13
2024-05-09T08:43:30.758Z,44.55
2024-05-09T08:45:59.523Z,45.00
2024-05-09T08:48:27.666Z,44.10
2024-05-09T08:50:59.334Z,43.83
2024-05-09T08:53:27.587Z,44.06
2024-05-09T08:56:00.174Z,44.02
2024-05-09T08:58:33.655Z,43.14
2024-05-09T09:01:03.876Z,41.88
2024-05-09T09:03:34.240Z,42.33
2024-05-09T09:06:06.630Z,42.55
2024-05-09T09:08:34.907Z,42.49
2024-05-09T09:11:03.322Z,41.85
2024-05-09T09:13:31.207Z,40.91
2024-05-09T09:16:00.187Z,40.71
2024-05-09T09:18:30.333Z,40.43
2024-05-09T09:20:58.679Z,40.03
2024-05-09T09:23:30.347Z,40.03
2024-05-09T09:26:00.185Z,39.61
2024-05-09T09:28:29.558Z,39.44
2024-05-09T09:31:04.511Z,38.78
2024-05-09T09:33:35.607Z,39.10
2024-05-09T09:36:05.853Z,38.08
2024-05-09T09:38:37.596Z,38.14
2024-05-09T09:41:07.945Z,38.32
2024-05-09T09:43:37.479Z,37.20
2024-05-09T09:46:08.640Z,36.40
2024-05-09T09:48:40.042Z,35.59
2024-05-09T09:51:09.167Z,34.56
2024-05-09T09:53:38.619Z,34.58
2024-05-09T09:56:10.196Z,36.18
2024-05-09T09:58:40.481Z,36.79
2024-05-09T10:01:08.692Z,37.68
2024-05-09T10:03:37.034Z,38.35
2024-05-09T10:06:07.697Z,38.89
2024-05-09T10:08:36.560Z,38.23
2024-05-09T10:11:04.856Z,37.39
2024-05-09T10:13:35.074Z,38.87
2024-05-09T10:16:10.811Z,39.41
2024-05-09T10:18:40.326Z,39.73
2024-05-09T10:21:18.470Z,38.80
2024-05-09T10:23:59.847Z,38.88
2024-05-09T10:26:35.817Z,39.03
2024-05-09T10:29:17.666Z,40.23
2024-05-09T10:31:47.650Z,39.79
2024-05-09T10:34:24.115Z,40.20
2024-05-09T10:36:55.808Z,41.10
2024-05-09T10:39:25.662Z,40.51
2024-05-09T10:41:53.715Z,40.02
2024-05-09T10:44:21.823Z,40.47
2024-05-09T10:46:50.748Z,41.64
2024-05-09T10:49:18.854Z,41.81
2024-05-09T10:51:48.906Z,40.55
2024-05-09T10:54:16.919Z,41.28
2024-05-09T10:56:44.858Z,41.43
2024-05-09T10:59:13.085Z,41.43
2024-05-09T11:01:41.317Z,41.20
2024-05-09T11:04:09.492Z,42.45
2024-05-09T11:06:38.494Z,42.69
2024-05-09T11:09:06.887Z,43.34
2024-05-09T11:11:35.083Z,43.85
2024-05-09T11:14:14.671Z,43.18
2024-05-09T11:16:42.951Z,44.04
2024-05-09T11:19:14.723Z,43.61
2024-05-09T11:21:43.206Z,43.71
2024-05-09T11:24:12.128Z,43.55
2024-05-09T11:26:40.089Z,42.47
2024-05-09T11:29:08.029Z,42.75
2024-05-09T11:31:46.508Z,43.41
2024-05-09T11:34:17.596Z,42.96
2024-05-09T11:36:45.731Z,42.10
2024-05-09T11:39:14.973Z,41.19
2024-05-09T11:41:43.024Z,41.59
2024-05-09T11:44:11.193Z,42.31
2024-05-09T11:46:39.349Z,41.92
2024-05-09T11:49:09.604Z,42.02
2024-05-09T11:51:37.829Z,42.23
2024-05-09T11:54:05.680Z,42.86
2024-05-09T11:56:33.685Z,42.32
2024-05-09T11:59:01.754Z,41.61
2024-05-09T12:01:29.836Z,41.62
2024-05-09T12:03:58.462Z,41.22
2024-05-09T12:06:26.993Z,42.19
2024-05-09T12:08:55.911Z,42.52
2024-05-09T12:11:24.050Z,42.78
2024-05-09T12:13:52.025Z,42.36
2024-05-09T12:16:20.229Z,41.77
2024-05-09T12:18:48.507Z,42.20
2024-05-09T12:21:17.526Z,42.33
2024-05-09T12:23:45.540Z,42.41
2024-05-09T12:26:15.626Z,41.91
2024-05-09T12:28:44.002Z,41.87
2024-05-09T12:31:12.000Z,42.47
2024-05-09T12:33:39.952Z,43.04
2024-05-09T12:36:07.938Z,43.25
2024-05-09T12:38:35.928Z,43.52
2024-05-09T12:41:04.509Z,42.73
2024-05-09T12:43:32.503Z,42.66
2024-05-09T12:46:01.144Z,43.29
2024-05-09T12:48:29.955Z,42.49
2024-05-09T12:50:58.044Z,42.12
2024-05-09T12:53:26.073Z,42.44
2024-05-09T12:55:59.726Z,42.08
2024-05-09T12:58:29.993Z,41.70
2024-05-09T13:00:58.157Z,41.37
2024-05-09T13:03:26.306Z,42.45
2024-05-09T13:05:54.778Z,43.42
2024-05-09T13:08:22.816Z,43.32
2024-05-09T13:10:51.295Z,43.55
2024-05-09T13:13:19.619Z,43.99
2024-05-09T13:15:47.960Z,43.04
2024-05-09T13:18:16.023Z,42.70
2024-05-09T13:20:44.682Z,42.33
2024-05-09T13:23:12.568Z,42.35
2024-05-09T13:25:40.508Z,42.44
2024-05-09T13:28:08.658Z,43.20
2024-05-09T13:30:40.813Z,44.04
2024-05-09T13:33:12.412Z,44.10
2024-05-09T13:35:47.665Z,43.49
2024-05-09T13:38:20.157Z,43.26
2024-05-09T13:40:49.211Z,43.65
2024-05-09T13:43:18.239Z,43.55
2024-05-09T13:45:46.907Z,43.97
2024-05-09T13:48:15.261Z,44.43
2024-05-09T13:50:43.457Z,43.98
2024-05-09T13:53:11.850Z,43.47
2024-05-09T13:55:40.512Z,43.24
2024-05-09T13:58:09.605Z,42.80
2024-05-09T14:00:46.057Z,43.01
2024-05-09T14:03:19.651Z,43.39
2024-05-09T14:05:51.104Z,43.21
2024-05-09T14:08:22.113Z,42.75
2024-05-09T14:10:51.902Z,42.62
2024-05-09T14:13:20.203Z,42.67
2024-05-09T14:15:48.539Z,42.59
2024-05-09T14:18:16.822Z,41.90
2024-05-09T14:20:44.863Z,41.24
2024-05-09T14:23:12.843Z,41.20
2024-05-09T14:25:42.824Z,42.31
2024-05-09T14:28:13.182Z,42.16
2024-05-09T14:30:42.773Z,42.44
2024-05-09T14:33:11.406Z,41.95
2024-05-09T14:35:39.703Z,41.75
2024-05-09T14:38:08.805Z,41.50
2024-05-09T14:40:42.199Z,40.84
2024-05-09T14:43:13.810Z,40.67
2024-05-09T14:45:43.161Z,41.28
2024-05-09T14:48:14.797Z,42.23
2024-05-09T14:50:43.195Z,41.79
2024-05-09T14:53:12.909Z,41.07
2024-05-09T14:55:43.054Z,41.23
2024-05-09T14:58:12.997Z,41.75
2024-05-09T15:00:46.361Z,41.66
2024-05-09T15:03:22.408Z,41.65
2024-05-09T15:05:51.504Z,42.15
2024-05-09T15:08:20.182Z,42.15
2024-05-09T15:10:50.062Z,42.33
2024-05-09T15:13:19.536Z,41.91
2024-05-09T15:15:48.219Z,41.87
2024-05-09T15:18:16.671Z,41.75
2024-05-09T15:20:45.609Z,42.13
2024-05-09T15:23:13.936Z,42.00
2024-05-09T15:25:41.973Z,41.62
2024-05-09T15:28:10.344Z,41.53
2024-05-09T15:30:39.097Z,41.37
2024-05-09T15:33:08.300Z,41.82
2024-05-09T15:35:41.057Z,41.22
2024-05-09T15:38:09.767Z,41.24
2024-05-09T15:40:40.347Z,41.61
2024-05-09T15:43:11.114Z,41.93
2024-05-09T15:45:40.995Z,41.67
2024-05-09T15:48:10.562Z,42.15
2024-05-09T15:50:41.418Z,42.03
2024-05-09T15:53:12.551Z,42.05
2024-05-09T15:55:42.258Z,42.25
2024-05-09T15:58:10.798Z,42.64
2024-05-09T16:00:42.209Z,42.22
2024-05-09T16:03:13.858Z,41.93
2024-05-09T16:05:45.698Z,42.41
2024-05-09T16:08:14.889Z,42.43
2024-05-09T16:10:45.844Z,42.21
2024-05-09T16:13:15.938Z,42.06
2024-05-09T16:15:44.397Z,42.29
2024-05-09T16:18:12.642Z,42.28
2024-05-09T16:20:42.605Z,42.86
2024-05-09T16:23:12.753Z,42.89
2024-05-09T16:25:46.185Z,43.42
2024-05-09T16:28:14.520Z,42.88
2024-05-09T16:30:42.518Z,42.21
2024-05-09T16:33:13.510Z,42.40
2024-05-09T16:35:41.486Z,42.69
2024-05-09T16:38:09.506Z,42.95
2024-05-09T16:40:40.367Z,42.52
2024-05-09T16:43:11.904Z,42.93
2024-05-09T16:45:41.424Z,43.04
2024-05-09T16:48:09.612Z,42.65
2024-05-09T16:50:38.359Z,43.46
2024-05-09T16:53:06.984Z,44.43
2024-05-09T16:55:36.117Z,45.83
2024-05-09T16:58:06.622Z,46.97
2024-05-09T17:00:40.945Z,47.51
2024-05-09T17:03:15.695Z,47.83
2024-05-09T17:05:48.442Z,48.01
2024-05-09T17:08:20.117Z,47.91
2024-05-09T17:10:49.359Z,47.97
2024-05-09T17:13:19.035Z,47.53
2024-05-09T17:15:47.903Z,47.59
2024-05-09T17:18:16.479Z,47.76
2024-05-09T17:20:44.496Z,47.97
2024-05-09T17:23:13.688Z,48.01
2024-05-09T17:25:42.687Z,48.22
2024-05-09T17:28:11.210Z,48.42
2024-05-09T17:30:41.742Z,48.67
2024-05-09T17:33:11.993Z,48.88
2024-05-09T17:35:41.499Z,48.66
2024-05-09T17:38:09.497Z,48.85
2024-05-09T17:40:38.857Z,48.89
2024-05-09T17:43:09.645Z,48.91
2024-05-09T17:45:40.846Z,48.99
2024-05-09T17:48:11.397Z,49.08
2024-05-09T17:50:41.256Z,49.13
2024-05-09T17:53:10.823Z,49.30
2024-05-09T17:55:40.205Z,49.24
2024-05-09T17:58:09.812Z,49.37
2024-05-09T18:00:41.192Z,49.59
2024-05-09T18:03:12.114Z,49.60
2024-05-09T18:05:43.192Z,49.89
2024-05-09T18:08:12.498Z,49.90
2024-05-09T18:10:41.884Z,50.20
2024-05-09T18:13:11.615Z,50.22
2024-05-09T18:15:40.398Z,50.59
2024-05-09T18:18:09.475Z,51.14
2024-05-09T18:20:43.645Z,51.17
2024-05-09T18:23:16.408Z,51.34
2024-05-09T18:25:46.708Z,51.33
2024-05-09T18:28:16.130Z,51.53
2024-05-09T18:30:44.556Z,51.54
2024-05-09T18:33:12.863Z,51.73
2024-05-09T18:35:43.684Z,51.84
2024-05-09T18:38:11.739Z,51.89
2024-05-09T18:40:41.701Z,51.98
2024-05-09T18:43:11.683Z,52.08
2024-05-09T18:45:40.212Z,52.13
2024-05-09T18:48:09.828Z,52.30
2024-05-09T18:50:40.470Z,52.21
2024-05-09T18:53:11.911Z,52.40
2024-05-09T18:55:42.096Z,52.43
2024-05-09T18:58:10.280Z,52.45
2024-05-09T19:00:41.272Z,52.57
2024-05-09T19:03:13.773Z,52.81
2024-05-09T19:05:44.684Z,53.12
2024-05-09T19:08:15.393Z,53.25
2024-05-09T19:10:45.648Z,53.40
2024-05-09T19:13:14.698Z,53.69
2024-05-09T19:15:43.817Z,53.77
2024-05-09T19:18:13.694Z,54.10
2024-05-09T19:20:42.810Z,54.30
2024-05-09T19:23:11.820Z,54.65
2024-05-09T19:25:40.205Z,54.76
2024-05-09T19:28:08.339Z,54.46
2024-05-09T19:30:40.858Z,54.53
2024-05-09T19:33:14.836Z,54.50
2024-05-09T19:35:43.818Z,54.82
2024-05-09T19:38:12.495Z,55.26
2024-05-09T19:40:40.788Z,55.21
2024-05-09T19:43:09.120Z,54.89
2024-05-09T19:45:37.311Z,55.06
2024-05-09T19:48:06.810Z,55.24
2024-05-09T19:50:41.632Z,55.37
2024-05-09T19:53:14.172Z,55.60
2024-05-09T19:55:42.801Z,55.39
2024-05-09T19:58:11.540Z,55.43
2024-05-09T20:00:42.839Z,55.47
2024-05-09T20:03:14.099Z,55.58
2024-05-09T20:05:45.528Z,55.61
2024-05-09T20:08:14.456Z,55.91
2024-05-09T20:10:42.812Z,56.16
2024-05-09T20:13:10.998Z,56.09
2024-05-09T20:15:40.024Z,56.27
2024-05-09T20:18:08.509Z,56.70
2024-05-09T20:20:40.455Z,56.46
2024-05-09T20:23:11.862Z,56.83
2024-05-09T20:25:40.295Z,57.24
2024-05-09T20:28:08.516Z,57.42
2024-05-09T20:30:36.816Z,57.60
2024-05-09T20:33:09.614Z,57.65
2024-05-09T20:35:38.394Z,57.92
2024-05-09T20:38:06.359Z,58.36
2024-05-09T20:40:37.692Z,58.66
2024-05-09T20:43:09.681Z,59.04
2024-05-09T20:45:38.664Z,59.49
2024-05-09T20:48:08.242Z,59.59
2024-05-09T20:50:40.593Z,59.74
2024-05-09T20:53:12.146Z,59.96
2024-05-09T20:55:41.081Z,60.11
2024-05-09T20:58:09.848Z,60.50
2024-05-09T21:00:42.218Z,60.95
2024-05-09T21:03:14.447Z,61.26
2024-05-09T21:05:43.871Z,61.51
2024-05-09T21:08:11.870Z,61.71
2024-05-09T21:10:39.715Z,61.64
2024-05-09T21:13:08.199Z,61.57
2024-05-09T21:15:36.574Z,61.75
2024-05-09T21:18:05.270Z,61.85
2024-05-09T21:20:34.952Z,62.02
2024-05-09T21:23:03.718Z,62.15
2024-05-09T21:25:32.449Z,62.14
2024-05-09T21:28:01.013Z,62.47
2024-05-09T21:30:38.544Z,62.62
2024-05-09T21:33:13.275Z,62.79
2024-05-09T21:35:43.700Z,63.11
2024-05-09T21:38:15.993Z,63.34
2024-05-09T21:40:44.773Z,63.56
2024-05-09T21:43:13.350Z,63.65
2024-05-09T21:45:41.448Z,63.96
2024-05-09T21:48:09.482Z,64.07
2024-05-09T21:50:41.043Z,64.62
2024-05-09T21:53:11.746Z,64.90
2024-05-09T21:55:40.148Z,65.17
2024-05-09T21:58:08.170Z,65.34
2024-05-09T22:00:39.485Z,65.33
2024-05-09T22:03:09.244Z,65.50
2024-05-09T22:05:42.052Z,65.66
2024-05-09T22:08:10.978Z,65.96
2024-05-09T22:10:39.101Z,66.02
2024-05-09T22:13:08.409Z,66.27
2024-05-09T22:15:39.174Z,66.45
2024-05-09T22:18:10.367Z,66.56
2024-05-09T22:20:46.601Z,66.86
2024-05-09T22:23:15.803Z,66.96
2024-05-09T22:25:44.291Z,67.12
2024-05-09T22:28:15.097Z,67.29
2024-05-09T22:30:45.754Z,67.64
2024-05-09T22:33:14.992Z,67.99
2024-05-09T22:35:42.992Z,68.08
2024-05-09T22:38:11.122Z,68.31
2024-05-09T22:40:46.886Z,68.37
2024-05-09T22:43:23.057Z,68.20
2024-05-09T22:45:55.035Z,68.19
2024-05-09T22:48:24.794Z,68.36
2024-05-09T22:50:53.908Z,68.25
2024-05-09T22:53:26.163Z,68.13
2024-05-09T22:55:54.460Z,68.09
2024-05-09T22:58:23.298Z,68.32
2024-05-09T23:00:51.572Z,68.40
2024-05-09T23:03:21.785Z,68.51
2024-05-09T23:05:50.626Z,68.37
2024-05-09T23:08:18.606Z,68.08
2024-05-09T23:10:46.683Z,68.27
2024-05-09T23:13:14.716Z,68.80
2024-05-09T23:15:42.630Z,69.04
2024-05-09T23:18:11.329Z,69.30
2024-05-09T23:20:40.282Z,69.50
2024-05-09T23:23:10.761Z,69.68
2024-05-09T23:25:43.884Z,69.75
2024-05-09T23:28:12.595Z,69.86
2024-05-09T23:30:41.849Z,70.01
2024-05-09T23:33:14.796Z,70.31
2024-05-09T23:35:44.391Z,70.32
2024-05-09T23:38:13.212Z,70.32
2024-05-09T23:40:42.516Z,70.34
2024-05-09T23:43:12.420Z,70.22
2024-05-09T23:45:42.151Z,70.29
2024-05-09T23:48:10.867Z,70.26
2024-05-09T23:50:40.312Z,70.19
2024-05-09T23:53:10.074Z,70.14
2024-05-09T23:55:39.360Z,70.24
2024-05-09T23:58:08.588Z,70.58
